createdAt,value
2018-12-03T00:01:20.331Z,79.27
2018-12-03T00:03:55.356Z,88.13
2018-12-03T00:06:29.012Z,91.03
2018-12-03T00:09:00.633Z,88.03
2018-12-03T00:11:33.613Z,94.70
2018-12-03T00:14:05.729Z,84.33
2018-12-03T00:16:37.417Z,99.70
2018-12-03T00:19:10.066Z,101.27
2018-12-03T00:21:41.875Z,109.27
2018-12-03T00:24:13.596Z,100.27
2018-12-03T00:26:45.344Z,93.20
2018-12-03T00:29:17.055Z,111.30
2018-12-03T00:31:48.858Z,108.60
2018-12-03T00:34:20.816Z,101.07
2018-12-03T00:36:52.657Z,101.17
2018-12-03T00:39:24.556Z,107.90
2018-12-03T00:41:56.366Z,107.63
2018-12-03T00:44:28.181Z,96.13
2018-12-03T00:47:00.001Z,93.37
2018-12-03T00:49:31.657Z,94.40
2018-12-03T00:52:03.471Z,96.17
2018-12-03T00:54:35.357Z,115.13
2018-12-03T00:57:07.220Z,105.10
2018-12-03T00:59:39.146Z,106.43
2018-12-03T01:02:26.870Z,98.87
2018-12-03T01:04:58.559Z,86.63
2018-12-03T01:07:30.389Z,103.43
2018-12-03T01:10:02.229Z,100.53
2018-12-03T01:12:35.088Z,87.73
2018-12-03T01:15:08.454Z,92.80
2018-12-03T01:17:40.289Z,100.77
2018-12-03T01:20:13.578Z,98.33
2018-12-03T01:22:45.336Z,98.70
2018-12-03T01:25:17.077Z,99.43
2018-12-03T01:27:48.866Z,92.20
2018-12-03T01:30:20.514Z,81.47
2018-12-03T01:32:52.248Z,84.90
2018-12-03T01:35:24.003Z,95.77
2018-12-03T01:37:55.884Z,95.17
2018-12-03T01:40:27.564Z,105.77
2018-12-03T01:42:59.313Z,93.93
2018-12-03T01:45:30.969Z,92.33
2018-12-03T01:48:02.690Z,101.93
2018-12-03T01:50:34.604Z,95.13
2018-12-03T01:53:06.408Z,110.50
2018-12-03T01:55:38.231Z,109.07
2018-12-03T01:58:09.995Z,92.40
2018-12-03T02:00:41.819Z,94.33
2018-12-03T02:03:13.692Z,81.60
2018-12-03T02:05:45.362Z,81.03
2018-12-03T02:08:17.069Z,84.93
2018-12-03T02:10:48.810Z,97.67
2018-12-03T02:13:20.579Z,103.47
2018-12-03T02:15:52.446Z,98.87
2018-12-03T02:18:24.277Z,93.30
2018-12-03T02:20:56.102Z,82.30
2018-12-03T02:23:27.800Z,82.03
2018-12-03T02:25:59.491Z,80.63
2018-12-03T02:28:31.321Z,71.57
2018-12-03T02:31:03.043Z,69.03
2018-12-03T02:33:34.842Z,105.23
2018-12-03T02:36:06.749Z,125.37
2018-12-03T02:38:38.532Z,85.57
2018-12-03T02:41:10.259Z,70.73
2018-12-03T02:43:41.999Z,71.90
2018-12-03T02:46:13.690Z,70.00
2018-12-03T02:48:45.561Z,66.93
2018-12-03T02:51:17.241Z,66.53
2018-12-03T02:53:48.932Z,67.27
2018-12-03T02:56:20.651Z,72.70
2018-12-03T02:58:52.381Z,70.10
2018-12-03T03:01:24.109Z,76.73
2018-12-03T03:03:55.772Z,82.67
2018-12-03T03:06:27.608Z,63.47
2018-12-03T03:08:59.378Z,73.10
2018-12-03T03:11:31.210Z,70.93
2018-12-03T03:14:02.881Z,68.63
2018-12-03T03:16:34.698Z,67.70
2018-12-03T03:19:06.473Z,78.60
2018-12-03T03:21:38.325Z,56.87
2018-12-03T03:24:10.019Z,59.30
2018-12-03T03:26:42.042Z,43.10
2018-12-03T03:29:14.035Z,41.60
2018-12-03T03:31:45.881Z,44.20
2018-12-03T03:34:17.719Z,50.20
2018-12-03T03:36:49.507Z,59.33
2018-12-03T03:39:21.310Z,128.97
2018-12-03T03:41:53.158Z,527.67
2018-12-03T03:44:24.919Z,817.47
2018-12-03T03:46:56.824Z,871.20
2018-12-03T03:49:29.860Z,974.70
2018-12-03T03:52:01.709Z,741.00
2018-12-03T03:54:33.458Z,1077.27
2018-12-03T03:57:05.303Z,797.93
2018-12-03T03:59:37.165Z,693.70
2018-12-03T04:02:08.909Z,830.57
2018-12-03T04:04:40.612Z,831.30
2018-12-03T04:07:12.289Z,707.80
2018-12-03T04:09:44.099Z,969.30
2018-12-03T04:12:15.852Z,898.17
2018-12-03T04:14:47.679Z,878.13
2018-12-03T04:17:19.474Z,1017.73
2018-12-03T04:19:51.376Z,814.90
2018-12-03T04:22:23.192Z,776.97
2018-12-03T04:24:55.040Z,928.47
2018-12-03T04:27:26.730Z,688.70
2018-12-03T04:29:58.611Z,542.83
2018-12-03T04:32:30.345Z,589.17
2018-12-03T04:35:02.262Z,682.63
2018-12-03T04:37:34.047Z,624.17
2018-12-03T04:40:06.223Z,750.73
2018-12-03T04:42:37.950Z,753.87
2018-12-03T04:45:21.249Z,529.47
2018-12-03T04:47:53.207Z,498.73
2018-12-03T04:50:25.415Z,437.60
2018-12-03T04:52:57.155Z,288.00
2018-12-03T04:55:28.769Z,162.33
2018-12-03T04:58:00.494Z,149.53
2018-12-03T05:00:32.473Z,146.53
2018-12-03T05:03:04.118Z,146.57
2018-12-03T05:05:35.910Z,171.93
2018-12-03T05:08:07.928Z,515.17
2018-12-03T05:10:39.679Z,745.27
2018-12-03T05:13:11.419Z,936.73
2018-12-03T05:15:43.258Z,875.87
2018-12-03T05:18:14.977Z,1126.53
2018-12-03T05:20:46.839Z,918.43
2018-12-03T05:23:18.597Z,1006.57
2018-12-03T05:25:50.248Z,699.00
2018-12-03T05:28:22.374Z,288.13
2018-12-03T05:30:54.132Z,375.27
2018-12-03T05:33:25.913Z,202.63
2018-12-03T05:35:57.664Z,129.90
2018-12-03T05:38:29.560Z,133.10
2018-12-03T05:41:01.437Z,122.30
2018-12-03T05:43:33.127Z,113.60
2018-12-03T05:46:04.980Z,114.30
2018-12-03T05:48:37.597Z,109.07
2018-12-03T05:51:09.380Z,118.67
2018-12-03T05:53:41.333Z,128.13
2018-12-03T05:56:13.200Z,134.40
2018-12-03T05:58:44.897Z,131.90
2018-12-03T06:01:16.749Z,161.00
2018-12-03T06:03:48.418Z,158.17
2018-12-03T06:06:20.227Z,172.23
2018-12-03T06:08:52.079Z,290.50
2018-12-03T06:11:28.202Z,453.23
2018-12-03T06:14:00.108Z,377.00
2018-12-03T06:16:35.976Z,210.53
2018-12-03T06:19:14.758Z,181.10
2018-12-03T06:21:55.641Z,156.57
2018-12-03T06:24:27.676Z,175.53
2018-12-03T06:26:59.683Z,137.80
2018-12-03T06:29:38.096Z,131.63
2018-12-03T06:32:14.015Z,142.30
2018-12-03T06:34:49.101Z,131.80
2018-12-03T06:37:28.447Z,141.00
2018-12-03T06:42:46.919Z,125.47
2018-12-03T06:45:26.183Z,131.83
2018-12-03T06:48:11.842Z,122.83
2018-12-03T06:50:46.713Z,119.47
2018-12-03T06:53:25.590Z,115.43
2018-12-03T06:56:00.927Z,119.13
2018-12-03T06:58:38.759Z,121.13
2018-12-03T07:01:17.148Z,116.87
2018-12-03T07:03:57.917Z,129.23
2018-12-03T07:06:29.769Z,130.23
2018-12-03T07:09:06.369Z,129.53
2018-12-03T07:11:54.377Z,116.30
2018-12-03T07:14:37.236Z,123.13
2018-12-03T07:17:26.795Z,133.13
2018-12-03T07:20:02.390Z,130.63
2018-12-03T07:22:43.117Z,114.10
2018-12-03T07:25:21.840Z,94.47
2018-12-03T07:28:00.451Z,91.03
2018-12-03T07:30:39.205Z,90.13
2018-12-03T07:33:17.877Z,90.23
2018-12-03T07:35:53.895Z,95.57
2018-12-03T07:38:33.693Z,91.67
2018-12-03T07:41:09.455Z,84.10
2018-12-03T07:43:47.809Z,83.60
2018-12-03T07:46:26.777Z,89.20
2018-12-03T07:49:01.818Z,78.37
2018-12-03T07:51:39.936Z,88.70
2018-12-03T07:54:17.808Z,81.80
2018-12-03T07:56:56.106Z,79.53
2018-12-03T07:59:27.824Z,91.40
2018-12-03T08:01:59.653Z,87.40
2018-12-03T08:04:31.444Z,77.23
2018-12-03T08:07:03.354Z,77.07
2018-12-03T08:09:35.113Z,69.30
2018-12-03T08:12:07.063Z,67.47
2018-12-03T08:14:38.913Z,65.60
2018-12-03T08:17:10.524Z,68.47
2018-12-03T08:19:42.304Z,69.60
2018-12-03T08:22:15.128Z,68.87
2018-12-03T08:24:46.895Z,66.03
2018-12-03T08:27:18.725Z,69.17
2018-12-03T08:29:50.440Z,63.50
2018-12-03T08:32:22.425Z,59.50
2018-12-03T08:34:54.317Z,61.63
2018-12-03T08:37:25.969Z,54.87
2018-12-03T08:39:57.758Z,55.70
2018-12-03T08:42:29.654Z,52.47
2018-12-03T08:45:01.468Z,54.83
2018-12-03T08:47:33.327Z,46.73
2018-12-03T08:50:08.756Z,44.13
2018-12-03T08:52:40.486Z,41.27
2018-12-03T08:55:14.016Z,40.17
2018-12-03T08:57:45.746Z,38.47
2018-12-03T09:00:27.710Z,41.90
2018-12-03T09:03:28.556Z,37.17
2018-12-03T09:06:03.244Z,44.13
2018-12-03T09:08:34.902Z,43.30
2018-12-03T09:11:07.645Z,46.70
2018-12-03T09:13:39.535Z,50.17
2018-12-03T09:16:11.446Z,42.00
2018-12-03T09:18:43.688Z,39.47
2018-12-03T09:21:16.726Z,46.67
2018-12-03T09:23:53.945Z,36.77
2018-12-03T09:26:25.774Z,43.17
2018-12-03T09:28:57.530Z,32.27
2018-12-03T09:31:29.250Z,25.67
2018-12-03T09:34:01.575Z,26.07
2018-12-03T09:36:33.457Z,24.93
2018-12-03T09:39:17.296Z,23.37
2018-12-03T09:41:50.305Z,21.10
2018-12-03T09:44:21.994Z,26.03
2018-12-03T09:46:53.828Z,21.17
2018-12-03T09:49:25.598Z,18.90
2018-12-03T09:51:57.395Z,16.80
2018-12-03T09:54:29.153Z,19.77
2018-12-03T09:57:00.847Z,20.93
2018-12-03T09:59:32.498Z,22.77
2018-12-03T10:02:05.080Z,20.40
2018-12-03T10:04:39.579Z,19.43
2018-12-03T10:07:13.045Z,18.43
2018-12-03T10:09:44.678Z,20.80
2018-12-03T10:12:18.316Z,19.37
2018-12-03T10:14:49.940Z,18.50
2018-12-03T10:17:21.668Z,27.50
2018-12-03T10:19:53.527Z,18.40
2018-12-03T10:22:25.437Z,14.47
2018-12-03T10:24:57.256Z,15.17
2018-12-03T10:27:29.070Z,17.00
2018-12-03T10:30:02.645Z,19.23
2018-12-03T10:32:34.487Z,14.53
2018-12-03T10:35:06.717Z,16.40
2018-12-03T10:37:38.376Z,16.80
2018-12-03T10:40:20.932Z,13.03
2018-12-03T10:42:52.867Z,17.93
2018-12-03T10:45:26.264Z,22.57
2018-12-03T10:47:59.392Z,26.47
2018-12-03T10:50:31.100Z,30.83
2018-12-03T10:53:02.889Z,21.93
2018-12-03T10:55:38.206Z,18.00
2018-12-03T10:58:09.998Z,23.27
2018-12-03T11:00:58.719Z,16.80
2018-12-03T11:03:47.178Z,17.00
2018-12-03T11:06:23.245Z,20.17
2018-12-03T11:08:55.143Z,15.43
2018-12-03T11:11:27.054Z,16.50
2018-12-03T11:14:04.417Z,16.47
2018-12-03T11:16:38.433Z,13.47
2018-12-03T11:19:13.918Z,15.13
2018-12-03T11:21:46.559Z,16.10
2018-12-03T11:24:19.028Z,14.57
2018-12-03T11:26:52.469Z,16.57
2018-12-03T11:29:24.269Z,13.37
2018-12-03T11:31:56.536Z,17.17
2018-12-03T11:34:28.790Z,13.53
2018-12-03T11:37:02.112Z,12.10
2018-12-03T11:39:59.015Z,14.03
2018-12-03T11:42:36.303Z,13.37
2018-12-03T11:45:10.304Z,15.17
2018-12-03T11:47:42.049Z,16.67
2018-12-03T11:50:16.301Z,19.53
2018-12-03T11:52:48.133Z,14.07
2018-12-03T11:55:19.933Z,17.40
2018-12-03T11:57:51.765Z,19.80
2018-12-03T12:00:23.538Z,16.77
2018-12-03T12:02:55.687Z,19.80
2018-12-03T12:05:27.477Z,17.67
2018-12-03T12:07:59.226Z,15.63
2018-12-03T12:10:31.134Z,13.87
2018-12-03T12:13:04.771Z,13.50
2018-12-03T12:15:36.636Z,14.23
2018-12-03T12:18:08.388Z,13.27
2018-12-03T12:20:40.153Z,14.67
2018-12-03T12:23:11.943Z,14.60
2018-12-03T12:25:43.762Z,17.30
2018-12-03T12:28:15.491Z,17.13
2018-12-03T12:30:47.285Z,19.40
2018-12-03T12:33:18.946Z,15.00
2018-12-03T12:35:50.773Z,18.10
2018-12-03T12:38:22.547Z,15.27
2018-12-03T12:40:54.933Z,14.43
2018-12-03T12:43:26.786Z,19.63
2018-12-03T12:46:01.327Z,20.17
2018-12-03T12:48:33.058Z,16.13
2018-12-03T12:51:04.924Z,21.10
2018-12-03T12:53:36.724Z,20.80
2018-12-03T12:56:08.584Z,15.23
2018-12-03T12:58:40.315Z,21.73
2018-12-03T13:01:12.080Z,15.77
2018-12-03T13:06:41.456Z,36.30
2018-12-03T13:09:13.641Z,16.43
2018-12-03T13:11:49.322Z,19.67
2018-12-03T13:14:21.122Z,18.73
2018-12-03T13:16:52.955Z,19.33
2018-12-03T13:19:24.847Z,19.73
2018-12-03T13:21:56.633Z,20.10
2018-12-03T13:24:28.523Z,18.57
2018-12-03T13:27:00.304Z,20.53
2018-12-03T13:29:32.004Z,20.90
2018-12-03T13:32:22.343Z,24.07
2018-12-03T13:34:58.026Z,25.00
2018-12-03T13:37:29.840Z,26.70
2018-12-03T13:40:01.710Z,33.63
2018-12-03T13:42:33.606Z,36.23
2018-12-03T13:45:05.456Z,34.27
2018-12-03T13:47:56.576Z,34.40
2018-12-03T13:50:32.341Z,35.17
2018-12-03T13:53:07.443Z,33.67
2018-12-03T13:55:39.251Z,37.57
2018-12-03T13:58:10.947Z,39.87
2018-12-03T14:00:42.582Z,34.70
2018-12-03T14:03:16.964Z,37.00
2018-12-03T14:06:16.252Z,32.30
2018-12-03T14:09:16.863Z,31.03
2018-12-03T14:12:15.299Z,33.83
2018-12-03T14:15:27.843Z,27.50
2018-12-03T14:18:08.927Z,29.27
2018-12-03T14:20:43.503Z,34.20
2018-12-03T14:23:17.103Z,23.83
2018-12-03T14:25:48.944Z,33.27
2018-12-03T14:28:20.687Z,34.30
2018-12-03T14:30:52.370Z,38.37
2018-12-03T14:33:24.295Z,64.73
2018-12-03T14:35:55.972Z,45.77
2018-12-03T14:38:27.681Z,48.83
2018-12-03T14:40:59.504Z,36.50
2018-12-03T14:43:37.571Z,339.40
2018-12-03T14:46:09.374Z,59.07
2018-12-03T14:48:48.698Z,54.47
2018-12-03T14:51:28.782Z,38.77
2018-12-03T14:54:11.623Z,45.93
2018-12-03T14:56:43.420Z,44.77
2018-12-03T14:59:15.093Z,43.60
2018-12-03T15:01:46.845Z,47.47
2018-12-03T15:04:18.518Z,50.00
2018-12-03T15:06:50.285Z,41.30
2018-12-03T15:09:25.107Z,42.50
2018-12-03T15:11:56.942Z,48.17
2018-12-03T15:14:47.193Z,47.90
2018-12-03T15:17:18.874Z,52.60
2018-12-03T15:19:50.514Z,83.40
2018-12-03T15:22:22.452Z,57.03
2018-12-03T15:24:54.250Z,58.33
2018-12-03T15:27:25.989Z,55.27
2018-12-03T15:29:57.796Z,58.07
2018-12-03T15:32:29.482Z,57.27
2018-12-03T15:35:05.253Z,56.43
2018-12-03T15:37:37.073Z,61.70
2018-12-03T15:40:14.920Z,71.50
2018-12-03T15:42:50.830Z,48.83
2018-12-03T15:45:25.921Z,49.70
2018-12-03T15:47:57.733Z,61.90
2018-12-03T15:50:29.583Z,117.00
2018-12-03T15:53:04.958Z,101.77
2018-12-03T15:55:36.845Z,57.10
2018-12-03T15:58:19.074Z,98.90
2018-12-03T16:00:59.779Z,186.60
2018-12-03T16:03:31.664Z,92.73
2018-12-03T16:06:03.647Z,85.93
2018-12-03T16:08:35.393Z,78.17
2018-12-03T16:11:25.740Z,158.67
2018-12-03T16:14:00.423Z,92.77
2018-12-03T16:16:32.214Z,101.17
2018-12-03T16:19:04.043Z,112.97
2018-12-03T16:21:40.504Z,70.20
2018-12-03T16:24:12.382Z,132.70
2018-12-03T16:26:44.153Z,77.37
2018-12-03T16:29:34.527Z,81.33
2018-12-03T16:32:06.450Z,73.57
2018-12-03T16:34:44.736Z,72.93
2018-12-03T16:37:16.583Z,76.73
2018-12-03T16:39:48.610Z,76.90
2018-12-03T16:42:20.612Z,95.80
2018-12-03T16:44:55.883Z,163.17
2018-12-03T16:47:27.594Z,83.40
2018-12-03T16:49:59.395Z,62.40
2018-12-03T16:52:31.150Z,69.07
2018-12-03T16:55:03.003Z,82.13
2018-12-03T16:57:34.677Z,86.90
2018-12-03T17:00:09.787Z,76.97
2018-12-03T17:02:47.963Z,113.80
2018-12-03T17:05:19.667Z,121.87
2018-12-03T17:07:51.452Z,114.43
2018-12-03T17:10:27.172Z,83.33
2018-12-03T17:12:59.754Z,73.53
2018-12-03T17:15:49.964Z,115.97
2018-12-03T17:18:27.048Z,182.43
2018-12-03T17:21:21.330Z,160.27
2018-12-03T17:24:25.410Z,173.77
2018-12-03T17:26:57.382Z,131.10
2018-12-03T17:29:29.151Z,120.07
2018-12-03T17:32:00.954Z,128.47
2018-12-03T17:34:32.773Z,129.90
2018-12-03T17:37:23.363Z,109.77
2018-12-03T17:40:02.350Z,150.70
2018-12-03T17:42:34.157Z,125.97
2018-12-03T17:45:07.649Z,135.70
2018-12-03T17:47:45.674Z,110.93
2018-12-03T17:50:17.592Z,122.40
2018-12-03T17:52:52.723Z,119.87
2018-12-03T17:55:24.487Z,123.90
2018-12-03T17:58:04.242Z,102.80
2018-12-03T18:00:36.043Z,92.30
2018-12-03T18:03:13.773Z,102.17
2018-12-03T18:05:49.562Z,86.67
2018-12-03T18:11:11.264Z,120.53
2018-12-03T18:13:46.402Z,103.07
2018-12-03T18:16:18.282Z,137.60
2018-12-03T18:18:50.086Z,111.00
2018-12-03T18:21:21.934Z,126.13
2018-12-03T18:23:53.883Z,143.20
2018-12-03T18:26:25.685Z,143.03
2018-12-03T18:28:57.333Z,177.17
2018-12-03T18:31:29.159Z,184.17
2018-12-03T18:34:00.949Z,189.50
2018-12-03T18:36:32.756Z,227.20
2018-12-03T18:39:04.833Z,160.40
2018-12-03T18:41:39.295Z,133.27
2018-12-03T18:44:11.137Z,278.60
2018-12-03T18:46:42.974Z,532.00
2018-12-03T18:49:27.049Z,403.43
2018-12-03T18:51:58.715Z,405.80
2018-12-03T18:54:30.506Z,458.27
2018-12-03T18:57:02.304Z,492.53
2018-12-03T18:59:34.133Z,380.53
2018-12-03T19:02:05.935Z,374.20
2018-12-03T19:04:37.830Z,170.97
2018-12-03T19:07:09.605Z,147.63
2018-12-03T19:09:41.452Z,115.73
2018-12-03T19:12:13.184Z,97.67
2018-12-03T19:14:45.001Z,84.60
2018-12-03T19:17:16.794Z,96.07
2018-12-03T19:19:48.442Z,105.13
2018-12-03T19:22:20.214Z,136.13
2018-12-03T19:24:53.885Z,96.60
2018-12-03T19:27:25.646Z,96.13
2018-12-03T19:29:57.459Z,106.80
2018-12-03T19:32:31.097Z,79.83
2018-12-03T19:35:11.035Z,63.83
2018-12-03T19:37:44.708Z,68.03
2018-12-03T19:40:16.473Z,78.10
2018-12-03T19:42:48.248Z,83.43
2018-12-03T19:45:20.067Z,64.53
2018-12-03T19:47:51.819Z,84.00
2018-12-03T19:50:23.592Z,84.87
2018-12-03T19:52:56.375Z,88.57
2018-12-03T19:55:28.709Z,75.10
2018-12-03T19:58:18.436Z,161.67
2018-12-03T20:00:51.333Z,120.07
2018-12-03T20:03:23.386Z,107.33
2018-12-03T20:05:55.303Z,100.43
2018-12-03T20:08:27.056Z,85.57
2018-12-03T20:10:58.879Z,105.37
2018-12-03T20:13:30.771Z,120.60
2018-12-03T20:16:02.473Z,258.77
2018-12-03T20:18:34.331Z,127.93
2018-12-03T20:21:09.403Z,69.27
2018-12-03T20:23:50.486Z,50.87
2018-12-03T20:26:31.156Z,72.17
2018-12-03T20:29:36.354Z,122.50
2018-12-03T20:32:25.392Z,85.80
2018-12-03T20:35:25.040Z,110.10
2018-12-03T20:38:16.594Z,84.80
2018-12-03T20:41:14.514Z,43.80
2018-12-03T20:43:47.004Z,42.00
2018-12-03T20:46:30.985Z,52.30
2018-12-03T20:49:35.605Z,59.37
2018-12-03T20:52:17.616Z,54.50
2018-12-03T20:54:50.342Z,63.57
2018-12-03T20:57:22.072Z,63.00
2018-12-03T20:59:53.936Z,54.33
2018-12-03T21:02:26.314Z,51.57
2018-12-03T21:04:57.987Z,45.37
2018-12-03T21:07:30.915Z,38.90
2018-12-03T21:10:02.727Z,46.23
2018-12-03T21:12:34.439Z,38.17
2018-12-03T21:15:06.327Z,49.73
2018-12-03T21:17:38.085Z,47.67
2018-12-03T21:20:22.221Z,48.13
2018-12-03T21:22:53.994Z,49.53
2018-12-03T21:25:25.766Z,50.03
2018-12-03T21:27:57.418Z,57.73
2018-12-03T21:30:29.254Z,67.37
2018-12-03T21:33:00.900Z,48.67
2018-12-03T21:35:32.694Z,57.17
2018-12-03T21:38:04.493Z,57.27
2018-12-03T21:40:36.282Z,59.80
2018-12-03T21:43:08.127Z,63.93
2018-12-03T21:45:39.820Z,50.00
2018-12-03T21:48:11.615Z,53.60
2018-12-03T21:50:43.285Z,52.47
2018-12-03T21:53:15.968Z,52.90
2018-12-03T21:55:47.694Z,50.60
2018-12-03T21:58:19.496Z,48.10
2018-12-03T22:00:51.252Z,56.77
2018-12-03T22:03:23.121Z,49.33
2018-12-03T22:05:54.750Z,64.00
2018-12-03T22:08:26.636Z,71.50
2018-12-03T22:10:58.754Z,99.00
2018-12-03T22:13:30.451Z,66.63
2018-12-03T22:16:02.235Z,115.47
2018-12-03T22:18:34.161Z,142.00
2018-12-03T22:21:06.141Z,117.60
2018-12-03T22:23:37.979Z,82.17
2018-12-03T22:26:09.860Z,83.93
2018-12-03T22:28:41.715Z,90.17
2018-12-03T22:31:13.578Z,64.90
2018-12-03T22:33:45.547Z,64.00
2018-12-03T22:36:17.338Z,87.40
2018-12-03T22:38:50.799Z,88.50
2018-12-03T22:41:22.524Z,81.80
2018-12-03T22:43:54.208Z,84.03
2018-12-03T22:46:25.846Z,77.87
2018-12-03T22:48:57.632Z,63.37
2018-12-03T22:51:29.517Z,50.73
2018-12-03T22:54:01.196Z,65.87
2018-12-03T22:56:33.046Z,54.53
2018-12-03T22:59:04.934Z,64.17
2018-12-03T23:01:36.706Z,53.53
2018-12-03T23:04:08.388Z,49.67
2018-12-03T23:06:40.241Z,42.10
2018-12-03T23:09:12.112Z,47.73
2018-12-03T23:11:43.943Z,41.60
2018-12-03T23:14:15.776Z,43.77
2018-12-03T23:16:47.628Z,48.73
2018-12-03T23:19:19.411Z,45.27
2018-12-03T23:21:51.265Z,47.93
2018-12-03T23:24:22.982Z,45.87
2018-12-03T23:26:54.747Z,39.00
2018-12-03T23:31:54.179Z,46.63
2018-12-03T23:34:24.829Z,54.27
2018-12-03T23:36:55.326Z,39.73
2018-12-03T23:39:25.799Z,41.10
2018-12-03T23:41:56.253Z,41.03
2018-12-03T23:44:26.847Z,48.27
2018-12-03T23:46:57.566Z,65.77
2018-12-03T23:49:28.136Z,54.63
2018-12-03T23:51:58.723Z,60.93
2018-12-03T23:54:29.287Z,58.90
2018-12-03T23:56:59.904Z,56.73
2018-12-03T23:59:30.474Z,50.77
